sensor_id;sensor_type;location;lat;lon;timestamp;pressure;altitude;pressure_sealevel;temperature
25981;BMP280;13772;52.996;9.124;2022-12-29T10:03:52;99780.47;;;20.85
25981;BMP280;13772;52.996;9.124;2022-12-29T10:06:41;99780.72;;;19.63
25981;BMP280;13772;52.996;9.124;2022-12-29T10:09:40;99779.56;;;18.27
25981;BMP280;13772;52.996;9.124;2022-12-29T10:14:54;99775.56;;;16.32
25981;BMP280;13772;52.996;9.124;2022-12-29T10:17:30;99783.06;;;15.63
25981;BMP280;13772;52.996;9.124;2022-12-29T10:20:14;99777.53;;;14.99
25981;BMP280;13772;52.996;9.124;2022-12-29T10:23:18;99768.63;;;14.38
25981;BMP280;13772;52.996;9.124;2022-12-29T10:25:47;99772.19;;;13.81
25981;BMP280;13772;52.996;9.124;2022-12-29T10:28:21;99758.13;;;13.48
25981;BMP280;13772;52.996;9.124;2022-12-29T10:30:48;99769.81;;;13.19
25981;BMP280;13772;52.996;9.124;2022-12-29T10:33:20;99757.53;;;12.93
25981;BMP280;13772;52.996;9.124;2022-12-29T10:35:49;99760.91;;;12.64
25981;BMP280;13772;52.996;9.124;2022-12-29T10:38:24;99781.81;;;12.40
25981;BMP280;13772;52.996;9.124;2022-12-29T10:41:04;99773.09;;;12.17
25981;BMP280;13772;52.996;9.124;2022-12-29T10:43:41;99763.81;;;11.95
25981;BMP280;13772;52.996;9.124;2022-12-29T10:46:11;99764.03;;;11.72
25981;BMP280;13772;52.996;9.124;2022-12-29T10:48:38;99758.03;;;11.49
25981;BMP280;13772;52.996;9.124;2022-12-29T10:51:07;99760.56;;;11.37
25981;BMP280;13772;52.996;9.124;2022-12-29T10:53:45;99756.16;;;11.34
25981;BMP280;13772;52.996;9.124;2022-12-29T10:56:27;99766.03;;;11.37
25981;BMP280;13772;52.996;9.124;2022-12-29T10:58:54;99758.69;;;11.39
25981;BMP280;13772;52.996;9.124;2022-12-29T11:01:22;99752.59;;;11.41
25981;BMP280;13772;52.996;9.124;2022-12-29T11:04:00;99750.59;;;11.41
25981;BMP280;13772;52.996;9.124;2022-12-29T11:06:28;99752.06;;;11.42
25981;BMP280;13772;52.996;9.124;2022-12-29T11:09:02;99748.59;;;11.42
25981;BMP280;13772;52.996;9.124;2022-12-29T11:11:36;99740.16;;;11.40
25981;BMP280;13772;52.996;9.124;2022-12-29T11:14:30;99738.84;;;11.41
25981;BMP280;13772;52.996;9.124;2022-12-29T11:17:00;99744.34;;;11.41
25981;BMP280;13772;52.996;9.124;2022-12-29T11:19:29;99736.78;;;11.49
25981;BMP280;13772;52.996;9.124;2022-12-29T11:22:20;99742.69;;;11.63
25981;BMP280;13772;52.996;9.124;2022-12-29T11:24:48;99730.25;;;11.79
25981;BMP280;13772;52.996;9.124;2022-12-29T11:29:49;99745.31;;;12.23
25981;BMP280;13772;52.996;9.124;2022-12-29T11:32:28;99736.66;;;12.26
25981;BMP280;13772;52.996;9.124;2022-12-29T11:34:57;99740.97;;;12.19
25981;BMP280;13772;52.996;9.124;2022-12-29T11:37:28;99752.94;;;12.14
25981;BMP280;13772;52.996;9.124;2022-12-29T11:45:18;99755.22;;;12.08
25981;BMP280;13772;52.996;9.124;2022-12-29T11:47:45;99748.16;;;12.15
25981;BMP280;13772;52.996;9.124;2022-12-29T11:50:18;99747.59;;;12.16
25981;BMP280;13772;52.996;9.124;2022-12-29T11:52:44;99748.16;;;12.15
25981;BMP280;13772;52.996;9.124;2022-12-29T11:55:36;99740.31;;;12.11
25981;BMP280;13772;52.996;9.124;2022-12-29T11:58:04;99755.53;;;12.12
25981;BMP280;13772;52.996;9.124;2022-12-29T12:00:32;99739.34;;;12.16
25981;BMP280;13772;52.996;9.124;2022-12-29T12:03:00;99748.66;;;12.04
25981;BMP280;13772;52.996;9.124;2022-12-29T12:05:58;99745.66;;;12.09
25981;BMP280;13772;52.996;9.124;2022-12-29T12:09:07;99735.56;;;12.12
25981;BMP280;13772;52.996;9.124;2022-12-29T12:11:28;99748.16;;;12.15
25981;BMP280;13772;52.996;9.124;2022-12-29T12:14:23;99756.03;;;12.18
25981;BMP280;13772;52.996;9.124;2022-12-29T12:17:17;99749.88;;;12.10
25981;BMP280;13772;52.996;9.124;2022-12-29T12:19:49;99744.47;;;12.03
25981;BMP280;13772;52.996;9.124;2022-12-29T12:25:04;99761.69;;;11.86
25981;BMP280;13772;52.996;9.124;2022-12-29T12:27:41;99765.16;;;11.86
25981;BMP280;13772;52.996;9.124;2022-12-29T12:35:11;99762.34;;;11.94
25981;BMP280;13772;52.996;9.124;2022-12-29T12:37:49;99771.66;;;11.99
25981;BMP280;13772;52.996;9.124;2022-12-29T12:40:30;99771.56;;;12.06
25981;BMP280;13772;52.996;9.124;2022-12-29T12:46:19;99777.16;;;12.16
25981;BMP280;13772;52.996;9.124;2022-12-29T12:49:18;99784.69;;;12.15
25981;BMP280;13772;52.996;9.124;2022-12-29T12:51:59;99788.41;;;12.10
25981;BMP280;13772;52.996;9.124;2022-12-29T13:00:03;99800.63;;;11.82
25981;BMP280;13772;52.996;9.124;2022-12-29T13:11:15;99824.75;;;11.24
25981;BMP280;13772;52.996;9.124;2022-12-29T13:19:38;99835.06;;;11.16
25981;BMP280;13772;52.996;9.124;2022-12-29T13:22:14;99844.78;;;11.17
25981;BMP280;13772;52.996;9.124;2022-12-29T13:27:55;99864.97;;;11.12
25981;BMP280;13772;52.996;9.124;2022-12-29T13:30:43;99851.59;;;11.08
25981;BMP280;13772;52.996;9.124;2022-12-29T13:36:00;99882.44;;;10.99
25981;BMP280;13772;52.996;9.124;2022-12-29T13:38:48;99866.75;;;10.92
25981;BMP280;13772;52.996;9.124;2022-12-29T13:41:31;99892.38;;;10.87
25981;BMP280;13772;52.996;9.124;2022-12-29T13:44:00;99881.78;;;10.83
25981;BMP280;13772;52.996;9.124;2022-12-29T13:46:31;99894.59;;;10.81
25981;BMP280;13772;52.996;9.124;2022-12-29T13:49:04;99891.69;;;10.79
25981;BMP280;13772;52.996;9.124;2022-12-29T13:51:30;99887.34;;;10.76
25981;BMP280;13772;52.996;9.124;2022-12-29T13:57:02;99906.00;;;10.62
25981;BMP280;13772;52.996;9.124;2022-12-29T14:02:19;99930.00;;;10.54
25981;BMP280;13772;52.996;9.124;2022-12-29T14:04:57;99937.72;;;10.48
25981;BMP280;13772;52.996;9.124;2022-12-29T14:07:23;99939.34;;;10.43
25981;BMP280;13772;52.996;9.124;2022-12-29T14:09:53;99936.63;;;10.43
25981;BMP280;13772;52.996;9.124;2022-12-29T14:12:27;99945.44;;;10.41
25981;BMP280;13772;52.996;9.124;2022-12-29T14:14:53;99945.25;;;10.39
25981;BMP280;13772;52.996;9.124;2022-12-29T14:17:20;99939.78;;;10.32
25981;BMP280;13772;52.996;9.124;2022-12-29T14:19:51;99954.03;;;10.23
25981;BMP280;13772;52.996;9.124;2022-12-29T14:22:27;99959.88;;;10.11
25981;BMP280;13772;52.996;9.124;2022-12-29T14:24:53;99961.38;;;10.05
25981;BMP280;13772;52.996;9.124;2022-12-29T14:29:48;99977.81;;;9.89
25981;BMP280;13772;52.996;9.124;2022-12-29T14:34:45;99986.53;;;9.72
25981;BMP280;13772;52.996;9.124;2022-12-29T14:37:29;99985.97;;;9.66
25981;BMP280;13772;52.996;9.124;2022-12-29T14:40:18;99993.09;;;9.54
25981;BMP280;13772;52.996;9.124;2022-12-29T14:42:48;99997.06;;;9.45
25981;BMP280;13772;52.996;9.124;2022-12-29T14:47:40;100005.25;;;9.38
25981;BMP280;13772;52.996;9.124;2022-12-29T14:50:23;100004.34;;;9.35
25981;BMP280;13772;52.996;9.124;2022-12-29T14:52:55;100009.44;;;9.31
25981;BMP280;13772;52.996;9.124;2022-12-29T14:55:37;100011.25;;;9.29
25981;BMP280;13772;52.996;9.124;2022-12-29T14:58:06;100021.66;;;9.22
25981;BMP280;13772;52.996;9.124;2022-12-29T15:00:35;100026.38;;;9.22
25981;BMP280;13772;52.996;9.124;2022-12-29T15:03:14;100020.56;;;9.26
25981;BMP280;13772;52.996;9.124;2022-12-29T15:05:59;100029.88;;;9.30
25981;BMP280;13772;52.996;9.124;2022-12-29T15:08:32;100024.06;;;9.34
25981;BMP280;13772;52.996;9.124;2022-12-29T15:11:00;100041.00;;;9.24
25981;BMP280;13772;52.996;9.124;2022-12-29T15:13:37;100046.94;;;9.36
25981;BMP280;13772;52.996;9.124;2022-12-29T15:16:04;100036.53;;;9.42
25981;BMP280;13772;52.996;9.124;2022-12-29T15:18:31;100039.28;;;9.50
25981;BMP280;13772;52.996;9.124;2022-12-29T15:21:00;100039.50;;;9.52
25981;BMP280;13772;52.996;9.124;2022-12-29T15:23:26;100038.22;;;9.53
25981;BMP280;13772;52.996;9.124;2022-12-29T15:25:58;100042.78;;;9.58
25981;BMP280;13772;52.996;9.124;2022-12-29T15:28:24;100047.19;;;9.61
25981;BMP280;13772;52.996;9.124;2022-12-29T15:30:55;100052.31;;;9.65
25981;BMP280;13772;52.996;9.124;2022-12-29T15:33:23;100060.19;;;9.68
25981;BMP280;13772;52.996;9.124;2022-12-29T15:35:51;100067.13;;;9.69
25981;BMP280;13772;52.996;9.124;2022-12-29T15:38:28;100064.03;;;9.73
25981;BMP280;13772;52.996;9.124;2022-12-29T15:41:05;100061.31;;;9.73
25981;BMP280;13772;52.996;9.124;2022-12-29T15:46:18;100070.81;;;9.72
25981;BMP280;13772;52.996;9.124;2022-12-29T15:48:43;100068.97;;;9.75
25981;BMP280;13772;52.996;9.124;2022-12-29T15:51:18;100075.38;;;9.77
25981;BMP280;13772;52.996;9.124;2022-12-29T15:53:47;100074.13;;;9.78
25981;BMP280;13772;52.996;9.124;2022-12-29T15:56:13;100074.66;;;9.77
25981;BMP280;13772;52.996;9.124;2022-12-29T15:58:44;100069.38;;;9.79
25981;BMP280;13772;52.996;9.124;2022-12-29T16:01:43;100094.06;;;9.79
25981;BMP280;13772;52.996;9.124;2022-12-29T16:04:09;100082.69;;;9.75
25981;BMP280;13772;52.996;9.124;2022-12-29T16:06:36;100090.19;;;9.74
25981;BMP280;13772;52.996;9.124;2022-12-29T16:09:06;100096.78;;;9.71
25981;BMP280;13772;52.996;9.124;2022-12-29T16:11:33;100090.66;;;9.50
25981;BMP280;13772;52.996;9.124;2022-12-29T16:14:00;100088.09;;;9.52
25981;BMP280;13772;52.996;9.124;2022-12-29T16:16:31;100087.56;;;9.53
25981;BMP280;13772;52.996;9.124;2022-12-29T16:19:06;100085.38;;;9.52
25981;BMP280;13772;52.996;9.124;2022-12-29T16:21:35;100092.09;;;9.51
25981;BMP280;13772;52.996;9.124;2022-12-29T16:24:05;100085.16;;;9.50
25981;BMP280;13772;52.996;9.124;2022-12-29T16:26:31;100088.44;;;9.48
25981;BMP280;13772;52.996;9.124;2022-12-29T16:28:59;100089.38;;;9.51
25981;BMP280;13772;52.996;9.124;2022-12-29T16:33:57;100091.41;;;9.58
25981;BMP280;13772;52.996;9.124;2022-12-29T16:36:33;100090.53;;;9.63
25981;BMP280;13772;52.996;9.124;2022-12-29T16:41:47;100085.41;;;9.67
25981;BMP280;13772;52.996;9.124;2022-12-29T16:46:44;100082.44;;;9.57
25981;BMP280;13772;52.996;9.124;2022-12-29T16:49:17;100096.00;;;9.63
25981;BMP280;13772;52.996;9.124;2022-12-29T16:51:42;100096.56;;;9.69
25981;BMP280;13772;52.996;9.124;2022-12-29T16:54:19;100087.44;;;9.74
25981;BMP280;13772;52.996;9.124;2022-12-29T16:56:45;100101.16;;;9.74
25981;BMP280;13772;52.996;9.124;2022-12-29T16:59:31;100102.09;;;9.77
25981;BMP280;13772;52.996;9.124;2022-12-29T17:01:59;100105.91;;;9.73
25981;BMP280;13772;52.996;9.124;2022-12-29T17:04:26;100109.94;;;9.72
25981;BMP280;13772;52.996;9.124;2022-12-29T17:06:51;100109.19;;;9.72
25981;BMP280;13772;52.996;9.124;2022-12-29T17:09:19;100106.25;;;9.70
25981;BMP280;13772;52.996;9.124;2022-12-29T17:11:47;100109.34;;;9.66
25981;BMP280;13772;52.996;9.124;2022-12-29T17:14:48;100105.69;;;9.64
25981;BMP280;13772;52.996;9.124;2022-12-29T17:17:18;100105.16;;;9.65
25981;BMP280;13772;52.996;9.124;2022-12-29T17:19:55;100111.22;;;9.71
25981;BMP280;13772;52.996;9.124;2022-12-29T17:22:27;100110.47;;;9.71
25981;BMP280;13772;52.996;9.124;2022-12-29T17:24:54;100109.75;;;9.70
25981;BMP280;13772;52.996;9.124;2022-12-29T17:27:24;100110.66;;;9.73
25981;BMP280;13772;52.996;9.124;2022-12-29T17:29:50;100115.22;;;9.70
25981;BMP280;13772;52.996;9.124;2022-12-29T17:32:17;100108.63;;;9.66
25981;BMP280;13772;52.996;9.124;2022-12-29T17:34:43;100115.19;;;9.63
25981;BMP280;13772;52.996;9.124;2022-12-29T17:39:49;100109.13;;;9.64
25981;BMP280;13772;52.996;9.124;2022-12-29T17:42:14;100108.44;;;9.64
25981;BMP280;13772;52.996;9.124;2022-12-29T17:44:40;100109.34;;;9.66
25981;BMP280;13772;52.996;9.124;2022-12-29T17:47:09;100109.75;;;9.70
25981;BMP280;13772;52.996;9.124;2022-12-29T17:49:35;100113.41;;;9.73
25981;BMP280;13772;52.996;9.124;2022-12-29T17:52:00;100111.59;;;9.76
25981;BMP280;13772;52.996;9.124;2022-12-29T17:54:25;100114.50;;;9.78
25981;BMP280;13772;52.996;9.124;2022-12-29T17:56:51;100121.69;;;9.81
25981;BMP280;13772;52.996;9.124;2022-12-29T17:59:17;100119.66;;;9.81
25981;BMP280;13772;52.996;9.124;2022-12-29T18:01:45;100125.88;;;9.82
25981;BMP280;13772;52.996;9.124;2022-12-29T18:04:16;100121.81;;;9.83
25981;BMP280;13772;52.996;9.124;2022-12-29T18:06:42;100121.13;;;9.82
25981;BMP280;13772;52.996;9.124;2022-12-29T18:09:08;100127.31;;;9.83
25981;BMP280;13772;52.996;9.124;2022-12-29T18:11:35;100128.81;;;9.84
25981;BMP280;13772;52.996;9.124;2022-12-29T18:14:02;100128.25;;;9.85
25981;BMP280;13772;52.996;9.124;2022-12-29T18:16:27;100133.00;;;9.85
25981;BMP280;13772;52.996;9.124;2022-12-29T18:18:52;100127.53;;;9.85
25981;BMP280;13772;52.996;9.124;2022-12-29T18:21:20;100127.31;;;9.83
25981;BMP280;13772;52.996;9.124;2022-12-29T18:23:46;100133.91;;;9.80
25981;BMP280;13772;52.996;9.124;2022-12-29T18:26:16;100131.16;;;9.80
25981;BMP280;13772;52.996;9.124;2022-12-29T18:28:42;100139.38;;;9.80
25981;BMP280;13772;52.996;9.124;2022-12-29T18:31:28;100131.38;;;9.82
25981;BMP280;13772;52.996;9.124;2022-12-29T18:33:55;100149.09;;;9.81
25981;BMP280;13772;52.996;9.124;2022-12-29T18:36:21;100150.34;;;9.80
25981;BMP280;13772;52.996;9.124;2022-12-29T18:38:47;100142.81;;;9.72
25981;BMP280;13772;52.996;9.124;2022-12-29T18:41:18;100144.06;;;9.64
25981;BMP280;13772;52.996;9.124;2022-12-29T18:43:44;100141.66;;;9.53
25981;BMP280;13772;52.996;9.124;2022-12-29T18:46:10;100138.31;;;9.46
25981;BMP280;13772;52.996;9.124;2022-12-29T18:48:36;100137.72;;;9.40
25981;BMP280;13772;52.996;9.124;2022-12-29T18:51:02;100139.53;;;9.38
25981;BMP280;13772;52.996;9.124;2022-12-29T18:53:27;100150.84;;;9.34
25981;BMP280;13772;52.996;9.124;2022-12-29T18:55:53;100149.91;;;9.32
25981;BMP280;13772;52.996;9.124;2022-12-29T18:58:19;100136.00;;;9.30
25981;BMP280;13772;52.996;9.124;2022-12-29T19:00:45;100154.97;;;9.28
25981;BMP280;13772;52.996;9.124;2022-12-29T19:03:11;100147.84;;;9.24
25981;BMP280;13772;52.996;9.124;2022-12-29T19:05:39;100144.19;;;9.22
25981;BMP280;13772;52.996;9.124;2022-12-29T19:08:06;100142.50;;;9.19
25981;BMP280;13772;52.996;9.124;2022-12-29T19:10:32;100148.56;;;9.17
25981;BMP280;13772;52.996;9.124;2022-12-29T19:12:58;100168.25;;;9.16
25981;BMP280;13772;52.996;9.124;2022-12-29T19:15:31;100152.56;;;9.16
25981;BMP280;13772;52.996;9.124;2022-12-29T19:17:58;100158.75;;;9.17
25981;BMP280;13772;52.996;9.124;2022-12-29T19:20:34;100154.75;;;9.18
25981;BMP280;13772;52.996;9.124;2022-12-29T19:23:02;100165.91;;;9.20
25981;BMP280;13772;52.996;9.124;2022-12-29T19:25:28;100168.09;;;9.21
25981;BMP280;13772;52.996;9.124;2022-12-29T19:27:53;100165.56;;;9.23
25981;BMP280;13772;52.996;9.124;2022-12-29T19:30:19;100166.50;;;9.26
25981;BMP280;13772;52.996;9.124;2022-12-29T19:32:50;100175.66;;;9.29
25981;BMP280;13772;52.996;9.124;2022-12-29T19:35:23;100167.44;;;9.29
25981;BMP280;13772;52.996;9.124;2022-12-29T19:37:49;100165.41;;;9.29
25981;BMP280;13772;52.996;9.124;2022-12-29T19:40:17;100174.38;;;9.30
25981;BMP280;13772;52.996;9.124;2022-12-29T19:42:43;100169.44;;;9.28
25981;BMP280;13772;52.996;9.124;2022-12-29T19:45:09;100162.69;;;9.29
25981;BMP280;13772;52.996;9.124;2022-12-29T19:47:34;100162.88;;;9.31
25981;BMP280;13772;52.996;9.124;2022-12-29T19:50:00;100176.59;;;9.31
25981;BMP280;13772;52.996;9.124;2022-12-29T19:52:26;100172.78;;;9.34
25981;BMP280;13772;52.996;9.124;2022-12-29T19:54:52;100173.50;;;9.35
25981;BMP280;13772;52.996;9.124;2022-12-29T19:57:18;100176.97;;;9.35
25981;BMP280;13772;52.996;9.124;2022-12-29T19:59:44;100180.63;;;9.38
25981;BMP280;13772;52.996;9.124;2022-12-29T20:02:17;100178.47;;;9.36
25981;BMP280;13772;52.996;9.124;2022-12-29T20:04:43;100171.50;;;9.35
25981;BMP280;13772;52.996;9.124;2022-12-29T20:07:08;100180.47;;;9.36
25981;BMP280;13772;52.996;9.124;2022-12-29T20:09:33;100180.47;;;9.36
25981;BMP280;13772;52.996;9.124;2022-12-29T20:11:59;100180.09;;;9.39
25981;BMP280;13772;52.996;9.124;2022-12-29T20:14:24;100185.59;;;9.39
25981;BMP280;13772;52.996;9.124;2022-12-29T20:16:49;100190.34;;;9.39
25981;BMP280;13772;52.996;9.124;2022-12-29T20:19:15;100194.53;;;9.40
25981;BMP280;13772;52.996;9.124;2022-12-29T20:21:40;100196.75;;;9.41
25981;BMP280;13772;52.996;9.124;2022-12-29T20:24:06;100204.22;;;9.41
25981;BMP280;13772;52.996;9.124;2022-12-29T20:26:32;100209.31;;;9.37
25981;BMP280;13772;52.996;9.124;2022-12-29T20:28:57;100208.41;;;9.34
25981;BMP280;13772;52.996;9.124;2022-12-29T20:31:30;100214.09;;;9.36
25981;BMP280;13772;52.996;9.124;2022-12-29T20:33:55;100217.34;;;9.35
25981;BMP280;13772;52.996;9.124;2022-12-29T20:36:24;100212.78;;;9.37
25981;BMP280;13772;52.996;9.124;2022-12-29T20:38:50;100221.72;;;9.38
25981;BMP280;13772;52.996;9.124;2022-12-29T20:41:16;100223.41;;;9.41
25981;BMP280;13772;52.996;9.124;2022-12-29T20:43:42;100230.59;;;9.44
25981;BMP280;13772;52.996;9.124;2022-12-29T20:46:08;100219.06;;;9.45
25981;BMP280;13772;52.996;9.124;2022-12-29T20:48:34;100226.56;;;9.45
25981;BMP280;13772;52.996;9.124;2022-12-29T20:50:59;100231.09;;;9.42
25981;BMP280;13772;52.996;9.124;2022-12-29T20:53:29;100236.59;;;9.42
25981;BMP280;13772;52.996;9.124;2022-12-29T20:56:01;100234.06;;;9.44
25981;BMP280;13772;52.996;9.124;2022-12-29T20:58:27;100239.53;;;9.44
25981;BMP280;13772;52.996;9.124;2022-12-29T21:00:53;100246.13;;;9.49
25981;BMP280;13772;52.996;9.124;2022-12-29T21:03:19;100246.88;;;9.50
25981;BMP280;13772;52.996;9.124;2022-12-29T21:05:44;100247.41;;;9.48
25981;BMP280;13772;52.996;9.124;2022-12-29T21:08:10;100241.84;;;9.40
25981;BMP280;13772;52.996;9.124;2022-12-29T21:10:36;100278.91;;;9.34
25981;BMP280;13772;52.996;9.124;2022-12-29T21:13:01;100292.88;;;9.22
25981;BMP280;13772;52.996;9.124;2022-12-29T21:15:27;100279.31;;;8.83
25981;BMP280;13772;52.996;9.124;2022-12-29T21:17:54;100266.66;;;8.45
25981;BMP280;13772;52.996;9.124;2022-12-29T21:20:19;100267.94;;;8.18
25981;BMP280;13772;52.996;9.124;2022-12-29T21:22:54;100267.34;;;7.98
25981;BMP280;13772;52.996;9.124;2022-12-29T21:25:20;100268.78;;;7.86
25981;BMP280;13772;52.996;9.124;2022-12-29T21:27:45;100271.41;;;7.78
25981;BMP280;13772;52.996;9.124;2022-12-29T21:30:11;100290.84;;;7.75
25981;BMP280;13772;52.996;9.124;2022-12-29T21:32:37;100280.97;;;7.72
25981;BMP280;13772;52.996;9.124;2022-12-29T21:35:02;100283.50;;;7.70
25981;BMP280;13772;52.996;9.124;2022-12-29T21:37:28;100282.53;;;7.67
25981;BMP280;13772;52.996;9.124;2022-12-29T21:39:53;100285.16;;;7.60
25981;BMP280;13772;52.996;9.124;2022-12-29T21:42:18;100284.28;;;7.51
25981;BMP280;13772;52.996;9.124;2022-12-29T21:44:44;100282.91;;;7.45
25981;BMP280;13772;52.996;9.124;2022-12-29T21:47:28;100278.78;;;7.38
25981;BMP280;13772;52.996;9.124;2022-12-29T21:50:13;100282.34;;;7.33
25981;BMP280;13772;52.996;9.124;2022-12-29T21:52:38;100287.59;;;7.31
25981;BMP280;13772;52.996;9.124;2022-12-29T21:55:04;100292.59;;;7.27
25981;BMP280;13772;52.996;9.124;2022-12-29T21:57:29;100303.34;;;7.25
25981;BMP280;13772;52.996;9.124;2022-12-29T22:00:13;100297.19;;;7.19
25981;BMP280;13772;52.996;9.124;2022-12-29T22:02:58;100310.72;;;7.11
25981;BMP280;13772;52.996;9.124;2022-12-29T22:05:42;100318.69;;;7.09
25981;BMP280;13772;52.996;9.124;2022-12-29T22:08:26;100323.63;;;7.11
25981;BMP280;13772;52.996;9.124;2022-12-29T22:11:11;100325.13;;;7.12
25981;BMP280;13772;52.996;9.124;2022-12-29T22:13:54;100334.25;;;7.14
25981;BMP280;13772;52.996;9.124;2022-12-29T22:16:23;100334.41;;;7.22
25981;BMP280;13772;52.996;9.124;2022-12-29T22:18:48;100334.31;;;7.27
25981;BMP280;13772;52.996;9.124;2022-12-29T22:21:14;100341.91;;;7.35
25981;BMP280;13772;52.996;9.124;2022-12-29T22:23:39;100340.34;;;7.39
25981;BMP280;13772;52.996;9.124;2022-12-29T22:26:10;100338.28;;;7.45
25981;BMP280;13772;52.996;9.124;2022-12-29T22:28:37;100353.09;;;7.50
25981;BMP280;13772;52.996;9.124;2022-12-29T22:31:04;100347.34;;;7.53
25981;BMP280;13772;52.996;9.124;2022-12-29T22:33:30;100348.28;;;7.56
25981;BMP280;13772;52.996;9.124;2022-12-29T22:35:55;100343.59;;;7.57
25981;BMP280;13772;52.996;9.124;2022-12-29T22:38:21;100345.88;;;7.52
25981;BMP280;13772;52.996;9.124;2022-12-29T22:40:46;100350.16;;;7.48
25981;BMP280;13772;52.996;9.124;2022-12-29T22:43:11;100350.25;;;7.42
25981;BMP280;13772;52.996;9.124;2022-12-29T22:45:40;100349.59;;;7.36
25981;BMP280;13772;52.996;9.124;2022-12-29T22:48:06;100346.47;;;7.26
25981;BMP280;13772;52.996;9.124;2022-12-29T22:50:31;100361.72;;;7.22
25981;BMP280;13772;52.996;9.124;2022-12-29T22:52:56;100358.53;;;7.18
25981;BMP280;13772;52.996;9.124;2022-12-29T22:55:22;100365.03;;;7.15
25981;BMP280;13772;52.996;9.124;2022-12-29T22:57:47;100361.63;;;7.08
25981;BMP280;13772;52.996;9.124;2022-12-29T23:00:13;100367.66;;;7.01
